Time;durP1;ratioP1;P1;durP2;ratioP2;P2;SDS_P1;SDS_P2;PMS_P1;PMS_P2;Temp;Humidity;BMP_temperature;BMP_pressure;BME280_temperature;BME280_humidity;BME280_pressure;Samples;Min_cycle;Max_cycle;Signal;HPM_P1;HPM_P2
2021/03/12 00:02:10;;;;;;;2.25;1.00;;;;;;;6.10;78.16;98180.19;5054487;28;20559;-69
2021/03/12 00:04:36;;;;;;;5.53;2.40;;;;;;;6.07;77.92;98180.22;5054524;28;20025;-69
2021/03/12 00:07:01;;;;;;;6.22;1.92;;;;;;;6.11;76.73;98171.59;5054444;28;20359;-69
2021/03/12 00:09:27;;;;;;;1.15;0.80;;;;;;;6.15;76.57;98183.56;5054006;28;20036;-69
2021/03/12 00:11:52;;;;;;;3.25;1.15;;;;;;;6.26;76.95;98186.03;5054232;28;20488;-69
2021/03/12 00:14:19;;;;;;;11.75;4.78;;;;;;;6.28;76.04;98185.13;5048776;28;20534;-69
2021/03/12 00:16:44;;;;;;;4.20;1.45;;;;;;;6.39;76.78;98183.31;5045134;28;20021;-69
2021/03/12 00:19:09;;;;;;;6.53;1.27;;;;;;;6.39;74.86;98172.19;5054422;28;20105;-69
2021/03/12 00:21:35;;;;;;;2.90;1.67;;;;;;;6.55;74.56;98183.13;5054056;28;20021;-69
2021/03/12 00:24:00;;;;;;;3.05;1.50;;;;;;;6.58;74.23;98183.13;5054236;28;20025;-69
2021/03/12 00:26:26;;;;;;;2.55;1.73;;;;;;;6.57;74.64;98173.66;5054092;28;20538;-69
2021/03/12 00:28:51;;;;;;;10.13;3.00;;;;;;;6.60;74.13;98182.22;5054069;28;20081;-69
2021/03/12 00:31:16;;;;;;;5.68;1.30;;;;;;;6.65;74.10;98174.44;5052397;28;20056;-69
2021/03/12 00:33:42;;;;;;;8.68;2.20;;;;;;;6.61;73.69;98173.63;5054067;28;20090;-69
2021/03/12 00:36:07;;;;;;;8.77;3.22;;;;;;;6.68;73.71;98179.56;5053792;28;20025;-69
2021/03/12 00:38:33;;;;;;;6.03;1.25;;;;;;;6.63;74.20;98186.50;5053900;28;20024;-69
2021/03/12 00:41:01;;;;;;;15.90;5.43;;;;;;;6.62;74.15;98179.59;5053663;28;20105;-69
2021/03/12 00:43:26;;;;;;;3.13;1.20;;;;;;;6.62;73.82;98184.75;5053744;28;20033;-69
2021/03/12 00:45:54;;;;;;;19.90;5.95;;;;;;;6.71;73.81;98189.81;5043410;28;20021;-69
2021/03/12 00:48:20;;;;;;;8.75;3.00;;;;;;;6.74;72.91;98189.78;5049450;28;20032;-69
2021/03/12 00:50:46;;;;;;;3.28;1.27;;;;;;;6.72;73.29;98199.25;5053476;28;20021;-69
2021/03/12 00:53:12;;;;;;;2.95;1.02;;;;;;;6.87;73.20;98195.63;5053539;28;20021;-69
2021/03/12 00:55:38;;;;;;;3.60;1.17;;;;;;;6.68;73.52;98195.00;5053516;28;20421;-69
2021/03/12 00:58:04;;;;;;;5.10;1.33;;;;;;;6.77;73.27;98210.34;5053418;28;20025;-69
2021/03/12 05:16:31;;;;;;;5.05;1.30;;;;;;;6.09;58.83;98469.09;5576483;22;20048;-73
2021/03/12 05:18:56;;;;;;;10.60;1.60;;;;;;;6.08;58.88;98477.66;5033223;28;20033;-73
2021/03/12 05:21:21;;;;;;;5.85;1.52;;;;;;;5.97;58.35;98466.59;5033041;28;20087;-73
2021/03/12 05:23:47;;;;;;;3.85;1.70;;;;;;;5.91;57.93;98468.31;5033275;28;20021;-73
2021/03/12 05:26:12;;;;;;;12.52;1.52;;;;;;;5.95;58.46;98468.28;5032852;28;20029;-73
2021/03/12 05:28:37;;;;;;;5.55;1.35;;;;;;;5.83;58.32;98470.03;5033114;28;20025;-73
2021/03/12 05:31:03;;;;;;;4.80;1.40;;;;;;;5.88;57.94;98472.59;5033268;28;20025;-69
2021/03/12 05:33:28;;;;;;;6.88;1.73;;;;;;;5.92;58.65;98482.88;5032964;28;20029;-70
2021/03/12 05:35:54;;;;;;;7.18;1.48;;;;;;;5.98;58.54;98478.56;5032751;28;20052;-70
2021/03/12 05:38:19;;;;;;;6.95;1.85;;;;;;;5.89;58.44;98485.44;5032923;28;20045;-70
2021/03/12 05:40:44;;;;;;;5.03;1.52;;;;;;;5.83;58.81;98495.75;5032544;28;20094;-70
2021/03/12 05:43:10;;;;;;;6.22;1.35;;;;;;;5.84;59.61;98487.16;5032770;28;20021;-70
2021/03/12 05:45:36;;;;;;;7.07;1.60;;;;;;;5.92;59.83;98485.47;5025821;28;20025;-70
2021/03/12 05:48:02;;;;;;;3.97;1.13;;;;;;;5.78;60.58;98492.34;5032644;28;20028;-70
2021/03/12 05:50:28;;;;;;;3.40;1.40;;;;;;;5.68;61.62;98488.09;5032575;28;20386;-69
2021/03/12 05:52:54;;;;;;;9.80;1.60;;;;;;;5.69;62.36;98497.50;5032533;28;20364;-70
2021/03/12 05:55:19;;;;;;;5.93;1.45;;;;;;;5.61;62.35;98491.53;5032437;28;20166;-69
2021/03/12 05:57:46;;;;;;;6.15;1.77;;;;;;;5.58;63.10;98487.25;5032580;28;20455;-70
2021/03/12 06:00:12;;;;;;;5.22;1.30;;;;;;;5.62;63.46;98490.69;5032463;28;20056;-70
2021/03/12 06:02:38;;;;;;;5.00;1.00;;;;;;;5.60;63.67;98488.09;5032282;28;20025;-70
2021/03/12 06:05:07;;;;;;;6.20;1.90;;;;;;;5.61;63.19;98488.97;5032413;28;20474;-69
2021/03/12 06:07:33;;;;;;;8.88;1.98;;;;;;;5.53;64.39;98490.72;4965427;28;20057;-70
2021/03/12 06:09:59;;;;;;;5.10;1.40;;;;;;;5.77;63.69;98485.50;5012509;28;20034;-70
2021/03/12 06:12:24;;;;;;;6.93;1.40;;;;;;;6.17;61.86;98486.19;5012419;28;20026;-70
2021/03/12 06:14:53;;;;;;;7.15;1.60;;;;;;;6.34;61.57;98493.84;5005988;28;20084;-70
2021/03/12 06:17:41;;;;;;;4.13;1.63;;;;;;;6.72;59.94;98495.31;5012095;28;20104;-70
2021/03/12 06:20:17;;;;;;;6.20;1.55;;;;;;;7.11;59.55;98498.44;5012515;28;20414;-71
2021/03/12 06:22:51;;;;;;;7.75;2.10;;;;;;;7.45;58.05;98499.81;4992069;28;20405;-70
2021/03/12 06:25:22;;;;;;;9.57;1.85;;;;;;;7.90;57.17;98492.44;4937500;28;20493;-70
2021/03/12 06:27:48;;;;;;;5.82;1.50;;;;;;;7.87;56.01;98496.78;4884345;28;20043;-70
2021/03/12 06:30:16;;;;;;;5.97;1.45;;;;;;;7.50;57.49;98506.66;4939496;28;20037;-70
2021/03/12 06:32:49;;;;;;;2.75;1.38;;;;;;;8.35;55.02;98500.47;4883188;28;20057;-70
2021/03/12 06:35:24;;;;;;;4.90;1.30;;;;;;;9.75;51.46;98502.50;4938736;28;20033;-70
2021/03/12 06:37:50;;;;;;;4.07;1.50;;;;;;;9.69;50.63;98509.56;4881711;28;20681;-70
2021/03/12 06:40:22;;;;;;;5.72;1.60;;;;;;;9.17;52.36;98507.88;4937215;28;20095;-70
2021/03/12 06:43:02;;;;;;;7.15;1.75;;;;;;;8.89;52.41;98521.22;4901838;28;20037;-70
2021/03/12 06:45:28;;;;;;;4.65;1.63;;;;;;;8.74;54.02;98530.06;4911670;28;20486;-70
2021/03/12 06:48:13;;;;;;;6.10;1.85;;;;;;;8.20;53.44;98537.66;4881432;28;20467;-70
2021/03/12 06:50:52;;;;;;;6.95;1.63;;;;;;;7.38;56.45;98539.41;4863216;28;20037;-70
2021/03/12 06:53:22;;;;;;;3.92;1.73;;;;;;;7.03;56.98;98541.44;4911624;28;20048;-69
2021/03/12 06:55:47;;;;;;;;;;;;;;;6.69;58.28;98546.81;4862759;28;20483;-70
2021/03/12 06:58:13;;;;;;;6.47;1.30;;;;;;;6.66;58.86;98551.97;4914115;28;19992;-70
2021/03/12 07:00:38;;;;;;;2.85;1.17;;;;;;;6.91;59.05;98557.81;4972023;28;20117;-70
2021/03/12 07:03:21;;;;;;;4.30;1.52;;;;;;;7.25;58.60;98567.88;4951402;28;20042;-71
2021/03/12 07:06:19;;;;;;;1.67;1.20;;;;;;;7.36;58.36;98566.06;4993407;28;20081;-70
2021/03/12 07:08:46;;;;;;;6.30;1.27;;;;;;;7.21;59.11;98572.22;4936211;28;20556;-70
2021/03/12 07:11:26;;;;;;;9.48;1.70;;;;;;;7.01;59.01;98579.19;4985696;28;20093;-70
2021/03/12 07:13:55;;;;;;;;;;;;;;;6.86;59.75;98580.16;4959121;28;20022;-70
2021/03/12 07:16:25;;;;;;;4.63;1.23;;;;;;;6.64;60.36;98579.44;4954695;28;19929;-70
2021/03/12 07:18:52;;;;;;;;;;;;;;;6.55;60.25;98584.66;4930586;28;20413;-70
2021/03/12 07:21:20;;;;;;;3.90;1.38;;;;;;;6.48;60.43;98588.09;4969982;28;19969;-69
2021/03/12 07:23:48;;;;;;;4.78;1.25;;;;;;;6.48;60.74;98585.53;5009181;28;20019;-69
2021/03/12 07:26:15;;;;;;;6.32;1.40;;;;;;;6.62;60.64;98586.31;5004715;28;20084;-69
2021/03/12 07:28:42;;;;;;;4.20;1.27;;;;;;;6.83;60.40;98591.34;5015321;28;20026;-69
2021/03/12 07:31:10;;;;;;;4.78;1.70;;;;;;;7.36;59.33;98591.84;5012608;28;20030;-70
2021/03/12 07:33:37;;;;;;;5.80;1.25;;;;;;;7.32;60.09;98595.31;5010691;28;20026;-70
2021/03/12 07:36:04;;;;;;;9.50;1.40;;;;;;;6.99;61.12;98601.56;5008066;28;20071;-70
2021/03/12 07:38:35;;;;;;;4.53;1.27;;;;;;;6.94;61.81;98599.84;4930697;28;20023;-70
2021/03/12 07:41:05;;;;;;;3.40;1.38;;;;;;;7.21;61.32;98603.13;5008054;28;20026;-71
2021/03/12 07:43:39;;;;;;;2.80;1.17;;;;;;;6.84;61.89;98603.34;4990782;28;20023;-70
2021/03/12 07:46:07;;;;;;;6.25;1.10;;;;;;;6.87;62.79;98603.34;5001371;28;20073;-70
2021/03/12 07:48:32;;;;;;;4.28;1.20;;;;;;;6.82;62.65;98599.94;5014662;28;20387;-70
2021/03/12 07:51:11;;;;;;;3.05;0.82;;;;;;;6.92;62.80;98596.44;5014738;28;20025;-70
2021/03/12 07:53:47;;;;;;;7.45;1.58;;;;;;;6.88;62.90;98601.63;5014899;28;20490;-70
2021/03/12 07:56:14;;;;;;;5.30;1.30;;;;;;;6.91;62.67;98612.78;5014698;28;20520;-70
2021/03/12 07:58:56;;;;;;;4.75;1.27;;;;;;;6.61;61.87;98607.78;5013651;28;20030;-70
2021/03/12 08:01:23;;;;;;;3.30;1.45;;;;;;;6.53;62.47;98612.13;4906318;28;20523;-70
2021/03/12 08:03:50;;;;;;;4.72;1.17;;;;;;;6.62;62.70;98601.75;4891566;28;20026;-70
2021/03/12 08:06:18;;;;;;;6.18;1.10;;;;;;;6.40;62.48;98607.00;4847048;28;20034;-70
2021/03/12 08:08:45;;;;;;;3.30;1.17;;;;;;;6.40;63.85;98622.44;4927775;28;20538;-69
2021/03/12 08:11:33;;;;;;;5.80;1.50;;;;;;;6.34;64.93;98632.78;5006554;28;20032;-69
2021/03/12 08:14:08;;;;;;;3.20;1.02;;;;;;;6.14;68.65;98635.41;4997139;28;20057;-69
2021/03/12 08:16:33;;;;;;;5.38;1.10;;;;;;;6.03;70.55;98641.41;5011416;28;20034;-69
2021/03/12 08:19:27;;;;;;;5.82;1.20;;;;;;;6.25;69.59;98643.09;5008247;28;20096;-69
2021/03/12 08:21:52;;;;;;;5.03;1.38;;;;;;;6.60;67.95;98642.09;5004171;28;20080;-69
2021/03/12 08:24:45;;;;;;;4.18;0.95;;;;;;;6.77;67.48;98640.31;5005660;28;20022;-70
2021/03/12 08:27:31;;;;;;;7.45;1.33;;;;;;;6.79;67.83;98641.16;5006944;28;20030;-69
2021/03/12 08:29:56;;;;;;;2.50;1.67;;;;;;;6.72;66.74;98639.50;4958602;28;20545;-70
2021/03/12 08:32:44;;;;;;;4.38;1.15;;;;;;;6.94;65.83;98637.63;4982152;28;20031;-69
2021/03/12 08:35:34;;;;;;;5.75;1.40;;;;;;;7.14;64.21;98627.22;5002394;28;20152;-69
2021/03/12 08:38:04;;;;;;;7.35;1.67;;;;;;;7.87;62.31;98624.03;4999978;28;20072;-69
2021/03/12 08:40:34;;;;;;;4.30;1.10;;;;;;;9.47;57.30;98620.28;4920606;28;20034;-70
2021/03/12 08:43:16;;;;;;;4.15;1.00;;;;;;;11.43;51.05;98606.88;4980024;28;20120;-70
2021/03/12 08:45:52;;;;;;;3.13;1.10;;;;;;;12.28;47.74;98608.16;4955826;28;20057;-70
2021/03/12 08:48:32;;;;;;;4.40;1.02;;;;;;;13.45;44.97;98593.41;4947363;28;20029;-70
2021/03/12 08:50:59;;;;;;;2.35;1.00;;;;;;;13.83;46.29;98599.94;4996408;28;20442;-70
2021/03/12 08:53:30;;;;;;;4.05;1.15;;;;;;;10.57;51.23;98607.09;4996252;28;20048;-70
2021/03/12 08:55:57;;;;;;;11.93;4.93;;;;;;;12.26;48.94;98599.56;4997666;28;20054;-70
2021/03/12 08:58:27;;;;;;;7.63;3.78;;;;;;;12.19;48.46;98609.28;5013154;28;20402;-70
2021/03/12 09:00:57;;;;;;;4.20;1.30;;;;;;;11.11;53.12;98604.16;5009867;28;20061;-70
2021/03/12 09:03:30;;;;;;;6.50;1.30;;;;;;;10.39;52.82;98603.13;4994457;28;20022;-70
2021/03/12 09:06:23;;;;;;;4.28;1.75;;;;;;;9.91;54.34;98609.19;4980951;28;20018;-69
2021/03/12 09:08:49;;;;;;;3.35;1.27;;;;;;;8.00;59.66;98611.88;4936769;28;20552;-69
2021/03/12 09:11:19;;;;;;;7.97;1.73;;;;;;;7.87;60.38;98603.38;4998079;28;20108;-69
2021/03/12 09:13:46;;;;;;;3.28;1.20;;;;;;;7.91;60.69;98602.50;5012266;28;20033;-69
2021/03/12 09:16:21;;;;;;;10.45;1.70;;;;;;;8.20;60.46;98603.91;4997361;28;20025;-69
2021/03/12 09:18:49;;;;;;;5.07;2.42;;;;;;;8.18;59.88;98610.81;5013006;28;20026;-69
2021/03/12 09:21:17;;;;;;;11.13;4.15;;;;;;;8.62;59.75;98596.56;5012468;28;20025;-69
2021/03/12 09:23:47;;;;;;;8.23;2.50;;;;;;;9.24;58.57;98585.31;5013214;28;20081;-69
2021/03/12 09:26:15;;;;;;;6.65;1.70;;;;;;;11.34;51.78;98581.16;5013036;28;20730;-69
2021/03/12 09:28:41;;;;;;;7.10;2.55;;;;;;;10.17;54.99;98576.78;5013217;28;20113;-70
2021/03/12 09:31:09;;;;;;;3.05;1.50;;;;;;;9.99;53.43;98584.00;5010825;28;20655;-69
2021/03/12 09:33:40;;;;;;;7.28;1.40;;;;;;;10.31;52.67;98574.81;5008694;28;20069;-69
2021/03/12 09:36:22;;;;;;;5.45;1.40;;;;;;;10.25;53.01;98580.09;5003207;28;20022;-69
2021/03/12 09:38:49;;;;;;;4.18;1.45;;;;;;;10.28;52.37;98569.69;5009422;28;20022;-69
2021/03/12 09:41:23;;;;;;;6.20;1.70;;;;;;;9.77;53.91;98568.03;5002225;28;20169;-70
2021/03/12 09:44:10;;;;;;;4.00;1.60;;;;;;;9.52;54.23;98572.78;5002272;28;20535;-69
2021/03/12 09:46:38;;;;;;;8.18;1.52;;;;;;;9.26;54.35;98569.78;5006396;28;20026;-69
2021/03/12 09:49:22;;;;;;;4.35;1.65;;;;;;;8.82;53.41;98579.06;4999847;28;20025;-69
2021/03/12 09:51:53;;;;;;;4.70;1.40;;;;;;;8.63;54.66;98587.94;4997995;28;20026;-69
2021/03/12 09:54:19;;;;;;;3.65;1.40;;;;;;;8.83;54.40;98573.00;5004552;28;20041;-69
2021/03/12 09:56:48;;;;;;;4.97;1.10;;;;;;;9.05;53.81;98570.97;5012067;28;20497;-70
2021/03/12 09:59:13;;;;;;;3.35;1.00;;;;;;;8.98;52.77;98575.34;5010865;28;20033;-69
2021/03/12 10:01:41;;;;;;;1.85;1.30;;;;;;;9.12;51.40;98566.56;4998988;28;20030;-69
2021/03/12 10:04:23;;;;;;;6.32;2.08;;;;;;;9.39;52.23;98563.53;5001183;28;20391;-69
2021/03/12 10:07:03;;;;;;;5.53;2.08;;;;;;;9.53;50.20;98553.81;4892571;28;20021;-69
2021/03/12 10:09:29;;;;;;;34.30;18.00;;;;;;;9.47;50.15;98559.06;4993422;28;20435;-69
2021/03/12 10:11:56;;;;;;;31.67;14.60;;;;;;;9.55;50.33;98558.94;4899030;28;20061;-69
2021/03/12 10:14:27;;;;;;;9.43;4.53;;;;;;;9.70;50.49;98560.41;4994635;28;20041;-70
2021/03/12 10:17:08;;;;;;;6.65;2.70;;;;;;;9.57;50.77;98554.59;4993959;28;20120;-69
2021/03/12 10:20:03;;;;;;;4.78;2.03;;;;;;;9.36;51.49;98555.81;4983532;28;20492;-69
2021/03/12 10:22:34;;;;;;;5.80;1.85;;;;;;;8.94;56.00;98563.34;5001539;28;20496;-69
2021/03/12 10:25:05;;;;;;;6.35;1.50;;;;;;;9.10;54.11;98565.72;5012375;28;20095;-69
2021/03/12 10:27:34;;;;;;;5.18;1.23;;;;;;;9.20;50.76;98559.53;5001735;28;20015;-69
2021/03/12 10:30:08;;;;;;;5.07;1.67;;;;;;;9.51;53.18;98570.22;5003636;28;20026;-69
2021/03/12 10:32:39;;;;;;;10.43;2.58;;;;;;;8.47;57.94;98559.72;4999972;28;20041;-69
2021/03/12 10:35:17;;;;;;;3.40;1.40;;;;;;;9.13;55.14;98560.50;5010814;28;20018;-69
2021/03/12 10:37:42;;;;;;;7.78;1.70;;;;;;;9.41;55.81;98560.91;5011976;28;20034;-70
2021/03/12 10:40:08;;;;;;;5.07;1.45;;;;;;;9.89;55.34;98561.78;4998973;28;20095;-70
2021/03/12 10:42:34;;;;;;;4.72;1.58;;;;;;;8.75;56.65;98567.09;4968133;28;20058;-70
2021/03/12 10:45:04;;;;;;;7.70;1.58;;;;;;;10.25;52.38;98549.00;4980681;28;20049;-70
2021/03/12 10:47:30;;;;;;;8.32;1.83;;;;;;;11.29;49.96;98538.91;4896562;28;20408;-70
2021/03/12 10:49:55;;;;;;;7.85;1.70;;;;;;;12.26;49.14;98539.81;4941148;28;20026;-70
2021/03/12 10:52:29;;;;;;;6.10;1.40;;;;;;;16.74;38.41;98522.13;5000474;28;20022;-70
2021/03/12 10:54:57;;;;;;;3.55;1.00;;;;;;;18.00;36.01;98516.75;4999858;28;20080;-70
2021/03/12 10:57:38;;;;;;;3.15;0.77;;;;;;;16.15;36.37;98534.38;5013667;28;20047;-70
2021/03/12 11:00:22;;;;;;;4.07;1.45;;;;;;;15.17;38.49;98539.34;4986581;28;20433;-70
2021/03/12 11:02:49;;;;;;;2.83;1.02;;;;;;;12.78;43.41;98548.66;4963011;28;20042;-70
2021/03/12 11:05:17;;;;;;;4.22;1.25;;;;;;;13.65;42.00;98535.47;5004422;28;20018;-70
2021/03/12 11:07:44;;;;;;;3.60;1.30;;;;;;;11.47;47.13;98556.59;4985676;28;20050;-71
2021/03/12 11:10:10;;;;;;;4.47;1.58;;;;;;;11.32;48.48;98554.41;5003384;28;20064;-71
2021/03/12 11:12:45;;;;;;;4.43;1.80;;;;;;;11.77;47.62;98543.72;5012953;28;20439;-71
2021/03/12 11:15:13;;;;;;;1.73;0.80;;;;;;;11.63;47.13;98553.63;5008771;28;20026;-71
2021/03/12 11:17:41;;;;;;;2.50;1.20;;;;;;;11.26;47.07;98546.75;5013111;28;20379;-71
2021/03/12 11:20:07;;;;;;;1.92;1.20;;;;;;;12.60;44.53;98537.91;5014334;28;20478;-71
2021/03/12 11:22:33;;;;;;;4.35;1.70;;;;;;;12.86;43.80;98534.53;5013914;28;20214;-71
2021/03/12 11:25:01;;;;;;;3.75;1.52;;;;;;;12.67;44.30;98527.31;4976543;28;20044;-72
2021/03/12 11:27:27;;;;;;;10.60;5.20;;;;;;;13.20;42.08;98532.59;5017780;28;20029;-71
2021/03/12 11:29:52;;;;;;;3.58;2.00;;;;;;;13.16;42.22;98520.63;5014326;28;20398;-70
2021/03/12 11:32:18;;;;;;;4.75;3.30;;;;;;;13.85;40.40;98506.13;5011329;23;20050;-74
2021/03/12 11:34:43;;;;;;;2.42;0.73;;;;;;;14.94;37.54;98502.91;5003298;28;20034;-74
2021/03/12 11:37:09;;;;;;;1.77;1.00;;;;;;;15.91;37.11;98489.28;5003252;28;20026;-74
2021/03/12 11:39:34;;;;;;;5.10;1.33;;;;;;;16.96;33.64;98491.38;5002069;28;20557;-74
2021/03/12 11:42:00;;;;;;;1.92;0.80;;;;;;;14.81;35.75;98483.44;5009587;28;20029;-74
2021/03/12 11:44:25;;;;;;;6.20;2.20;;;;;;;13.27;38.70;98497.72;5008823;28;20198;-74
2021/03/12 11:46:50;;;;;;;2.78;1.00;;;;;;;12.71;40.08;98497.75;5014538;28;20466;-74
2021/03/12 11:49:16;;;;;;;2.20;0.75;;;;;;;12.88;40.47;98490.28;4991036;28;20431;-74
2021/03/12 11:51:41;;;;;;;4.80;0.88;;;;;;;12.26;40.69;98490.47;5011339;28;20041;-74
2021/03/12 11:54:07;;;;;;;1.60;1.10;;;;;;;11.70;41.57;98478.16;5006072;28;20022;-74
2021/03/12 11:56:34;;;;;;;2.17;0.90;;;;;;;12.61;40.15;98471.19;5009910;28;20372;-73
2021/03/12 11:58:59;;;;;;;5.05;0.88;;;;;;;13.46;39.00;98470.16;5006218;28;20025;-73
2021/03/12 12:01:24;;;;;;;3.47;1.10;;;;;;;11.63;41.25;98479.22;4996995;28;20045;-74
2021/03/12 12:03:50;;;;;;;4.10;1.00;;;;;;;13.23;39.23;98464.91;5012509;28;20114;-74
2021/03/12 12:06:15;;;;;;;0.90;0.70;;;;;;;14.15;37.54;98447.69;5014624;28;20021;-74
2021/03/12 12:08:41;;;;;;;2.28;1.00;;;;;;;12.90;38.31;98456.41;5014572;28;20100;-74
2021/03/12 12:11:07;;;;;;;2.60;0.95;;;;;;;11.63;42.36;98453.25;5002618;28;20445;-74
2021/03/12 12:13:32;;;;;;;3.20;0.90;;;;;;;11.64;42.32;98449.78;5014176;28;20029;-74
2021/03/12 12:15:57;;;;;;;4.03;0.93;;;;;;;11.65;41.45;98451.47;5006266;28;20045;-73
2021/03/12 12:18:22;;;;;;;67.30;30.30;;;;;;;11.87;41.46;98446.56;5014304;28;20045;-74
2021/03/12 12:20:48;;;;;;;7.75;3.72;;;;;;;11.49;41.91;98445.84;5014173;28;20029;-74
2021/03/12 12:23:13;;;;;;;7.93;0.70;;;;;;;11.14;41.39;98446.78;5014419;28;20402;-75
2021/03/12 12:25:39;;;;;;;4.85;1.23;;;;;;;11.20;41.45;98443.19;5013769;28;20080;-74
2021/03/12 12:28:06;;;;;;;2.50;0.80;;;;;;;11.25;41.28;98449.94;5013870;28;20463;-71
2021/03/12 12:30:32;;;;;;;2.30;1.17;;;;;;;10.86;43.21;98449.22;5008266;28;20089;-68
2021/03/12 12:32:58;;;;;;;2.35;1.13;;;;;;;10.92;46.98;98443.88;5014148;28;20030;-68
2021/03/12 12:35:24;;;;;;;15.15;4.50;;;;;;;10.68;48.80;98445.31;5013294;28;20387;-68
2021/03/12 12:37:53;;;;;;;8.88;4.22;;;;;;;10.54;48.95;98437.03;5013004;28;20699;-68
2021/03/12 12:40:20;;;;;;;2.83;1.37;;;;;;;10.52;47.51;98434.47;5002074;28;20080;-68
2021/03/12 12:42:46;;;;;;;7.65;1.50;;;;;;;10.59;43.30;98429.13;5013780;28;20018;-68
2021/03/12 12:45:12;;;;;;;2.15;1.17;;;;;;;10.55;46.50;98429.22;5007270;28;20053;-68
2021/03/12 12:47:38;;;;;;;3.42;2.40;;;;;;;10.36;48.16;98425.34;5005982;28;20113;-68
2021/03/12 12:50:07;;;;;;;6.22;1.30;;;;;;;10.27;42.24;98426.41;4999618;28;20096;-68
2021/03/12 12:52:33;;;;;;;1.38;0.75;;;;;;;10.87;41.15;98424.13;5009399;28;20040;-68
2021/03/12 12:55:00;;;;;;;6.47;2.38;;;;;;;11.23;41.19;98422.38;5005745;28;20022;-68
2021/03/12 12:57:25;;;;;;;6.90;3.17;;;;;;;10.92;42.93;98415.34;5000870;28;20093;-68
2021/03/12 12:59:51;;;;;;;6.50;1.33;;;;;;;10.84;44.58;98426.81;5012487;28;20022;-68
2021/03/12 13:02:17;;;;;;;2.70;1.00;;;;;;;10.41;45.81;98415.75;4991369;28;20049;-68
2021/03/12 13:04:43;;;;;;;5.15;1.20;;;;;;;10.31;47.32;98424.63;5002306;28;20520;-68
2021/03/12 13:07:08;;;;;;;3.17;1.15;;;;;;;10.21;48.47;98420.50;5007708;28;20019;-68
2021/03/12 13:09:33;;;;;;;2.72;1.20;;;;;;;9.96;47.38;98423.63;4996763;28;20031;-68
2021/03/12 13:11:59;;;;;;;7.25;3.10;;;;;;;10.19;45.15;98419.66;5002299;28;20058;-68
2021/03/12 13:14:24;;;;;;;3.90;1.23;;;;;;;10.21;44.68;98423.09;5006303;28;20109;-68
2021/03/12 13:16:50;;;;;;;2.13;1.08;;;;;;;10.15;44.43;98413.69;5011780;28;20026;-68
2021/03/12 13:19:15;;;;;;;2.97;1.27;;;;;;;10.20;44.59;98417.06;4987030;28;20031;-68
2021/03/12 13:21:42;;;;;;;2.53;1.10;;;;;;;10.18;45.45;98412.78;4996636;28;20033;-68
2021/03/12 13:24:08;;;;;;;3.47;1.20;;;;;;;10.03;44.57;98412.25;5012609;28;20052;-68
2021/03/12 13:26:33;;;;;;;5.93;1.20;;;;;;;9.91;44.38;98409.94;4994252;28;20053;-68
2021/03/12 13:28:59;;;;;;;3.38;0.98;;;;;;;10.17;44.53;98408.50;4984036;28;20589;-68
2021/03/12 13:31:24;;;;;;;5.35;1.00;;;;;;;10.59;43.37;98408.41;4979740;28;20043;-68
2021/03/12 13:33:51;;;;;;;3.95;1.20;;;;;;;11.21;42.50;98403.38;4982387;28;20034;-68
2021/03/12 13:36:17;;;;;;;15.45;4.10;;;;;;;11.74;42.25;98382.88;4982163;28;21048;-68
2021/03/12 13:38:42;;;;;;;2.78;1.10;;;;;;;11.94;40.23;98380.59;4981994;28;20054;-68
2021/03/12 13:41:07;;;;;;;3.33;1.10;;;;;;;11.80;41.30;98393.09;4980670;28;20030;-68
2021/03/12 13:43:33;;;;;;;2.45;1.35;;;;;;;11.71;39.86;98378.66;4989206;28;20049;-68
2021/03/12 13:45:58;;;;;;;7.78;2.05;;;;;;;11.04;40.42;98376.16;4981745;28;20506;-68
2021/03/12 13:48:24;;;;;;;2.60;1.10;;;;;;;11.30;39.53;98379.78;4971991;28;20399;-68
2021/03/12 13:50:50;;;;;;;5.15;1.10;;;;;;;11.64;39.72;98373.66;4983499;28;20034;-68
2021/03/12 13:53:17;;;;;;;3.10;1.10;;;;;;;11.41;39.00;98363.94;4976437;28;20031;-68
2021/03/12 13:55:42;;;;;;;2.92;1.27;;;;;;;11.36;39.76;98371.84;4983917;28;20035;-68
2021/03/12 13:58:11;;;;;;;1.58;1.10;;;;;;;11.49;39.61;98361.97;4981722;28;20397;-68
2021/03/12 14:00:39;;;;;;;4.38;1.08;;;;;;;11.63;39.26;98352.06;4979620;28;20042;-68
2021/03/12 14:03:05;;;;;;;2.53;1.27;;;;;;;11.65;40.01;98357.19;4978448;28;20133;-68
2021/03/12 14:05:30;;;;;;;11.13;0.90;;;;;;;11.63;38.72;98348.63;4969547;28;20509;-68
2021/03/12 14:07:55;;;;;;;11.30;4.28;;;;;;;11.26;38.74;98354.84;4969489;28;20030;-68
2021/03/12 14:10:21;;;;;;;2.97;0.90;;;;;;;11.18;40.84;98356.81;4967341;28;20089;-68
2021/03/12 14:12:46;;;;;;;2.03;1.13;;;;;;;11.66;38.72;98343.34;4960728;28;20034;-68
2021/03/12 14:15:12;;;;;;;4.95;1.10;;;;;;;12.02;37.65;98331.88;4959683;28;20030;-68
2021/03/12 14:17:37;;;;;;;2.03;0.95;;;;;;;12.30;37.08;98339.66;4961054;28;20031;-68
2021/03/12 14:20:05;;;;;;;6.07;1.23;;;;;;;11.88;37.27;98339.22;4949868;28;20049;-68
2021/03/12 14:22:31;;;;;;;1.45;1.00;;;;;;;11.75;37.53;98333.53;4949109;28;20057;-68
2021/03/12 14:24:56;;;;;;;2.10;0.82;;;;;;;11.70;37.79;98335.44;4952277;28;20034;-68
2021/03/12 14:27:22;;;;;;;2.78;1.00;;;;;;;11.83;37.68;98323.78;4947813;28;20109;-68
2021/03/12 14:29:47;;;;;;;2.92;0.98;;;;;;;11.77;37.41;98326.53;4952775;28;20038;-68
2021/03/12 14:32:14;;;;;;;3.40;1.00;;;;;;;11.49;38.29;98326.50;4950236;28;20069;-68
2021/03/12 14:34:40;;;;;;;1.58;0.93;;;;;;;11.44;38.25;98325.78;4959682;28;20026;-68
2021/03/12 14:37:06;;;;;;;4.25;1.33;;;;;;;11.33;38.01;98317.47;4967015;28;20026;-68
2021/03/12 14:39:32;;;;;;;3.50;1.20;;;;;;;11.68;38.47;98325.97;4967500;28;20646;-68
2021/03/12 14:41:57;;;;;;;3.90;1.10;;;;;;;11.85;37.80;98310.78;4973449;28;20026;-68
2021/03/12 14:44:23;;;;;;;2.67;1.00;;;;;;;11.34;38.74;98316.56;4967235;28;20026;-68
2021/03/12 14:46:48;;;;;;;14.75;5.35;;;;;;;11.28;39.33;98315.00;4973330;28;20108;-68
2021/03/12 14:49:14;;;;;;;4.35;1.38;;;;;;;11.45;38.86;98309.31;4970892;28;20106;-68
2021/03/12 14:51:40;;;;;;;3.22;1.27;;;;;;;11.33;39.50;98302.75;4981729;28;20026;-68
2021/03/12 14:54:05;;;;;;;2.10;1.02;;;;;;;11.03;39.66;98307.06;4980596;28;20030;-68
2021/03/12 14:56:31;;;;;;;2.65;1.13;;;;;;;10.80;39.87;98304.25;4983182;28;20479;-68
2021/03/12 14:58:56;;;;;;;4.60;1.65;;;;;;;10.83;40.61;98309.34;4978403;28;20478;-68
2021/03/12 15:01:22;;;;;;;5.55;1.38;;;;;;;10.86;40.73;98309.25;4981232;28;20034;-68
2021/03/12 15:03:47;;;;;;;5.45;1.52;;;;;;;10.78;40.77;98312.06;4976806;28;20514;-68
2021/03/12 15:06:13;;;;;;;3.85;1.40;;;;;;;10.82;41.44;98312.81;4982350;28;20027;-68
2021/03/12 15:08:38;;;;;;;3.78;1.48;;;;;;;10.88;41.06;98315.25;4980553;28;20026;-68
2021/03/12 15:11:04;;;;;;;4.38;1.08;;;;;;;11.05;41.00;98310.47;4976261;28;20407;-69
2021/03/12 15:13:29;;;;;;;10.20;1.30;;;;;;;10.84;40.94;98295.50;4981061;28;20037;-70
2021/03/12 15:15:54;;;;;;;3.47;1.30;;;;;;;10.66;41.54;98317.56;4980992;28;20054;-69
2021/03/12 15:18:20;;;;;;;3.22;0.95;;;;;;;10.48;42.05;98310.25;4979436;28;20096;-70
2021/03/12 15:20:46;;;;;;;4.05;1.20;;;;;;;10.40;43.49;98315.63;4983294;28;20108;-70
2021/03/12 15:23:13;;;;;;;3.63;1.38;;;;;;;10.44;44.66;98312.09;4983671;28;20030;-69
2021/03/12 15:25:39;;;;;;;7.10;1.63;;;;;;;9.98;46.78;98313.13;4983382;28;20500;-70
2021/03/12 15:28:05;;;;;;;4.75;1.40;;;;;;;9.81;47.37;98319.56;4982471;28;20187;-70
2021/03/12 15:30:33;;;;;;;5.22;1.15;;;;;;;9.39;48.96;98310.13;4982376;28;20022;-70
2021/03/12 15:32:58;;;;;;;6.72;3.60;;;;;;;9.34;50.07;98309.38;4983206;28;20487;-70
2021/03/12 15:35:24;;;;;;;5.70;1.45;;;;;;;9.30;50.58;98297.41;4978195;28;20031;-69
2021/03/12 15:37:51;;;;;;;6.72;1.40;;;;;;;9.23;51.17;98295.81;4983256;28;20038;-69
2021/03/12 15:40:16;;;;;;;2.90;1.08;;;;;;;9.20;51.68;98285.53;4979558;28;20041;-70
2021/03/12 15:42:42;;;;;;;6.68;1.23;;;;;;;9.42;51.26;98276.44;4986842;28;20030;-69
2021/03/12 15:45:09;;;;;;;2.10;0.90;;;;;;;9.52;51.07;98283.16;4986777;28;20034;-70
2021/03/12 15:47:35;;;;;;;5.85;1.20;;;;;;;9.72;50.70;98281.84;4985950;28;20058;-70
2021/03/12 15:50:00;;;;;;;3.67;1.30;;;;;;;9.78;50.16;98284.28;4986951;28;20086;-70
2021/03/12 15:52:26;;;;;;;1.40;0.90;;;;;;;9.67;50.27;98270.72;4981154;28;20108;-70
2021/03/12 15:54:54;;;;;;;7.78;1.45;;;;;;;9.69;50.92;98275.00;4980859;28;20406;-70
2021/03/12 15:57:19;;;;;;;5.35;1.05;;;;;;;9.73;50.53;98275.78;4980736;28;20062;-69
2021/03/12 15:59:45;;;;;;;6.45;2.15;;;;;;;9.74;50.55;98272.31;4986638;28;20069;-70
2021/03/12 16:02:11;;;;;;;4.95;1.30;;;;;;;9.85;50.18;98261.69;4981714;28;20031;-70